Time;durP1;ratioP1;P1;durP2;ratioP2;P2;SDS_P1;SDS_P2;PMS_P1;PMS_P2;Temp;Humidity;BMP_temperature;BMP_pressure;BME280_temperature;BME280_humidity;BME280_pressure;Samples;Min_cycle;Max_cycle;Signal;HPM_P1;HPM_P2
2023/09/18 00:01:44;;;;;;;40.35;36.25;;;17.10;99.90;;;;;;7389939;19;20493;-63
2023/09/18 00:04:10;;;;;;;40.40;36.47;;;17.10;99.90;;;;;;7372813;19;20435;-57
2023/09/18 00:06:36;;;;;;;42.60;38.13;;;17.10;99.90;;;;;;7382540;19;20014;-62
2023/09/18 00:09:02;;;;;;;41.25;37.05;;;17.10;99.90;;;;;;7386355;19;20022;-63
2023/09/18 00:11:29;;;;;;;42.17;37.75;;;17.10;99.90;;;;;;7388639;19;20025;-63
2023/09/18 00:13:59;;;;;;;40.70;36.55;;;17.00;99.90;;;;;;7381827;19;20011;-63
2023/09/18 00:16:27;;;;;;;41.05;37.05;;;17.00;99.90;;;;;;7379079;19;20017;-58
2023/09/18 00:18:53;;;;;;;42.17;37.90;;;17.00;99.90;;;;;;7370475;19;20018;-57
2023/09/18 00:21:20;;;;;;;42.45;38.05;;;17.00;99.90;;;;;;7373963;19;20494;-57
2023/09/18 00:23:46;;;;;;;42.15;38.05;;;17.10;99.90;;;;;;7375265;19;20030;-57
2023/09/18 00:26:12;;;;;;;42.15;37.83;;;17.00;99.90;;;;;;7371843;19;20022;-57
2023/09/18 00:28:41;;;;;;;42.42;37.97;;;17.00;99.90;;;;;;7371218;19;20046;-57
2023/09/18 00:31:07;;;;;;;42.90;38.22;;;17.00;99.90;;;;;;7373312;19;20041;-57
2023/09/18 00:33:34;;;;;;;38.33;34.67;;;17.00;99.90;;;;;;7377004;19;20058;-57
2023/09/18 00:36:00;;;;;;;38.22;34.47;;;17.00;99.90;;;;;;7372803;19;20027;-58
2023/09/18 00:38:26;;;;;;;36.78;33.15;;;17.00;99.90;;;;;;7374063;19;20059;-57
2023/09/18 00:41:12;;;;;;;35.88;31.80;;;17.00;99.90;;;;;;7373823;19;20014;-57
2023/09/18 00:43:38;;;;;;;33.42;30.00;;;17.00;99.90;;;;;;7375591;19;20029;-57
2023/09/18 00:46:06;;;;;;;33.03;29.80;;;17.00;99.90;;;;;;7373779;19;20043;-57
2023/09/18 00:48:33;;;;;;;34.92;31.55;;;17.00;99.90;;;;;;7371025;19;20385;-57
2023/09/18 00:50:59;;;;;;;37.60;33.78;;;17.00;99.90;;;;;;7372846;19;20372;-58
2023/09/18 00:53:26;;;;;;;34.03;30.73;;;17.00;99.90;;;;;;7372328;19;20018;-57
2023/09/18 00:56:13;;;;;;;34.17;30.88;;;17.00;99.90;;;;;;7369597;19;20117;-57
2023/09/18 00:58:39;;;;;;;34.15;30.95;;;17.00;99.90;;;;;;7368979;19;20386;-57
2023/09/18 01:01:05;;;;;;;32.00;28.83;;;17.00;99.90;;;;;;7370789;19;20031;-57
2023/09/18 01:03:31;;;;;;;32.03;29.17;;;17.00;99.90;;;;;;7373021;19;20026;-58
2023/09/18 01:05:59;;;;;;;31.52;28.63;;;16.90;99.90;;;;;;7369843;19;20018;-57
2023/09/18 01:08:28;;;;;;;34.50;31.30;;;16.90;99.90;;;;;;7369930;19;20227;-57
2023/09/18 01:11:26;;;;;;;36.15;32.55;;;17.00;99.90;;;;;;7369485;19;20049;-56
2023/09/18 01:14:03;;;;;;;35.40;31.83;;;17.00;99.90;;;;;;7371227;19;20636;-57
2023/09/18 01:16:39;;;;;;;35.40;31.73;;;17.00;99.90;;;;;;7373214;19;20026;-56
2023/09/18 01:19:06;;;;;;;37.72;34.03;;;17.00;99.90;;;;;;7371076;19;20022;-57
2023/09/18 01:21:32;;;;;;;37.83;34.10;;;17.10;99.90;;;;;;7371586;19;20024;-57
2023/09/18 01:24:01;;;;;;;39.28;35.20;;;17.20;99.90;;;;;;7373830;19;20528;-57
2023/09/18 01:26:27;;;;;;;36.95;33.50;;;17.20;99.90;;;;;;7372754;19;20038;-57
2023/09/18 01:28:54;;;;;;;37.90;33.97;;;17.30;99.90;;;;;;7370700;19;20595;-57
2023/09/18 01:31:20;;;;;;;39.10;35.10;;;17.30;99.90;;;;;;7372771;19;20022;-57
2023/09/18 01:33:48;;;;;;;36.40;32.70;;;17.30;99.90;;;;;;7369527;19;20027;-57
2023/09/18 01:36:17;;;;;;;37.63;33.92;;;17.30;99.90;;;;;;7371902;19;20019;-57
2023/09/18 01:38:44;;;;;;;35.35;32.15;;;17.30;99.90;;;;;;7367634;19;20018;-56
2023/09/18 01:41:11;;;;;;;36.65;33.15;;;17.30;99.90;;;;;;7372266;19;20019;-56
2023/09/18 01:43:37;;;;;;;36.80;33.28;;;17.40;99.90;;;;;;7368523;19;20028;-57
2023/09/18 01:46:04;;;;;;;35.70;32.42;;;17.40;99.90;;;;;;7374483;19;20022;-57
2023/09/18 01:48:31;;;;;;;36.97;33.65;;;17.40;99.90;;;;;;7384522;19;20020;-62
2023/09/18 01:50:59;;;;;;;37.63;34.20;;;17.50;99.90;;;;;;7387648;19;20423;-62
2023/09/18 01:53:26;;;;;;;37.28;33.67;;;17.40;99.90;;;;;;7384294;19;20022;-65
2023/09/18 01:55:52;;;;;;;36.20;32.85;;;17.50;99.90;;;;;;7379668;19;20029;-57
2023/09/18 01:58:19;;;;;;;36.67;33.42;;;17.50;99.90;;;;;;7378411;19;20030;-57
2023/09/18 02:00:45;;;;;;;37.28;33.65;;;17.50;99.90;;;;;;7368271;19;20635;-58
2023/09/18 02:03:12;;;;;;;37.63;34.03;;;17.50;99.90;;;;;;7375509;19;20018;-57
2023/09/18 02:05:39;;;;;;;36.00;32.70;;;17.50;99.90;;;;;;7371191;19;20018;-58
2023/09/18 02:08:06;;;;;;;37.67;34.25;;;17.50;99.90;;;;;;7368990;19;20572;-58
2023/09/18 02:10:32;;;;;;;35.97;32.45;;;17.50;99.90;;;;;;7369846;19;20022;-57
2023/09/18 02:13:01;;;;;;;33.30;30.27;;;17.50;99.90;;;;;;7369780;19;20022;-57
2023/09/18 02:15:30;;;;;;;36.30;33.00;;;17.60;99.90;;;;;;7367091;19;20018;-58
2023/09/18 02:17:57;;;;;;;36.30;33.13;;;17.60;99.90;;;;;;7370751;19;20022;-58
2023/09/18 02:20:23;;;;;;;34.35;31.00;;;17.60;99.90;;;;;;7366639;19;20601;-58
2023/09/18 02:22:51;;;;;;;33.88;30.58;;;17.60;99.90;;;;;;7370550;19;20030;-57
2023/09/18 02:25:17;;;;;;;35.28;31.90;;;17.60;99.90;;;;;;7366415;19;20091;-57
2023/09/18 02:27:43;;;;;;;34.65;31.48;;;17.60;99.90;;;;;;7368798;19;20023;-57
2023/09/18 02:30:12;;;;;;;33.17;29.80;;;17.60;99.90;;;;;;7369449;19;20034;-57
2023/09/18 02:32:59;;;;;;;33.53;30.30;;;17.60;99.90;;;;;;7367777;19;20014;-58
2023/09/18 02:35:26;;;;;;;33.03;29.90;;;17.60;99.90;;;;;;7365858;19;20021;-57
2023/09/18 02:37:53;;;;;;;31.20;28.30;;;17.60;99.90;;;;;;7367169;19;20038;-58
2023/09/18 02:40:19;;;;;;;31.70;28.95;;;17.60;99.90;;;;;;7365513;19;20026;-57
2023/09/18 02:42:45;;;;;;;31.80;28.70;;;17.70;99.90;;;;;;7366392;19;20025;-57
2023/09/18 02:45:11;;;;;;;32.53;29.50;;;17.70;99.90;;;;;;7363154;19;20051;-57
2023/09/18 02:47:40;;;;;;;30.55;27.75;;;17.70;99.90;;;;;;7363589;19;20014;-58
2023/09/18 02:50:07;;;;;;;30.75;27.77;;;17.70;99.90;;;;;;7366330;19;20018;-58
2023/09/18 02:52:34;;;;;;;30.10;27.30;;;17.70;99.90;;;;;;7366472;19;20018;-57
2023/09/18 02:55:00;;;;;;;28.95;26.27;;;17.70;99.90;;;;;;7368105;19;20426;-57
2023/09/18 02:57:26;;;;;;;28.45;25.95;;;17.70;99.90;;;;;;7366803;19;20517;-57
2023/09/18 02:59:52;;;;;;;27.77;25.15;;;17.70;99.90;;;;;;7361567;19;20025;-58
2023/09/18 03:02:19;;;;;;;28.63;25.88;;;17.70;99.90;;;;;;7371351;19;20039;-58
2023/09/18 03:04:45;;;;;;;28.02;24.77;;;17.70;99.90;;;;;;7365007;19;20022;-57
2023/09/18 03:07:16;;;;;;;25.00;22.80;;;17.80;99.90;;;;;;7366712;19;20015;-58
2023/09/18 03:09:43;;;;;;;26.43;24.03;;;17.80;99.90;;;;;;7369582;19;20019;-55
2023/09/18 03:12:09;;;;;;;25.25;22.85;;;17.80;99.90;;;;;;7378282;19;20356;-58
2023/09/18 03:14:35;;;;;;;24.42;22.08;;;17.80;99.90;;;;;;7376009;19;20018;-57
2023/09/18 03:17:02;;;;;;;26.42;23.73;;;17.80;99.90;;;;;;7370551;19;20264;-57
2023/09/18 03:19:28;;;;;;;26.40;23.83;;;17.80;99.90;;;;;;7372693;19;20498;-58
2023/09/18 03:21:56;;;;;;;25.17;22.85;;;17.90;99.90;;;;;;7368360;19;20019;-57
2023/09/18 03:24:23;;;;;;;25.38;22.98;;;17.80;99.90;;;;;;7374912;19;20018;-57
2023/09/18 03:26:49;;;;;;;24.63;22.08;;;17.90;99.90;;;;;;7369025;19;20042;-57
2023/09/18 03:29:15;;;;;;;24.65;22.30;;;17.90;99.90;;;;;;7372274;19;20110;-56
2023/09/18 03:31:42;;;;;;;23.95;21.60;;;17.90;99.90;;;;;;7375825;19;20442;-57
2023/09/18 03:34:08;;;;;;;22.65;20.25;;;17.90;99.90;;;;;;7370160;19;20022;-57
2023/09/18 03:36:36;;;;;;;20.38;18.27;;;18.00;99.90;;;;;;7378800;19;20014;-63
2023/09/18 03:39:05;;;;;;;25.00;20.30;;;18.00;99.90;;;;;;7369929;19;20018;-58
2023/09/18 03:41:34;;;;;;;20.35;18.40;;;18.10;99.90;;;;;;7371860;19;20366;-56
2023/09/18 03:44:00;;;;;;;20.95;18.55;;;18.10;99.90;;;;;;7386118;19;20024;-62
2023/09/18 03:46:27;;;;;;;19.73;17.92;;;18.10;99.90;;;;;;7374012;19;20014;-56
2023/09/18 03:49:13;;;;;;;19.98;18.00;;;18.10;99.90;;;;;;7371921;19;20026;-56
2023/09/18 03:51:39;;;;;;;19.65;17.80;;;18.10;99.90;;;;;;7366368;19;20025;-57
2023/09/18 03:54:25;;;;;;;18.80;17.10;;;18.20;99.90;;;;;;7369031;19;20025;-57
2023/09/18 03:56:52;;;;;;;18.35;16.63;;;18.20;99.90;;;;;;7368806;19;20022;-57
2023/09/18 03:59:18;;;;;;;19.40;17.60;;;18.20;99.90;;;;;;7371171;19;20030;-58
2023/09/18 04:01:45;;;;;;;19.50;17.38;;;18.20;99.90;;;;;;7369177;19;20018;-57
2023/09/18 04:04:11;;;;;;;18.83;16.88;;;18.20;99.90;;;;;;7367855;19;20010;-57
2023/09/18 04:06:42;;;;;;;18.02;16.23;;;18.20;99.90;;;;;;7369367;19;20550;-57
2023/09/18 04:09:09;;;;;;;18.40;16.65;;;18.20;99.90;;;;;;7374618;19;20039;-55
2023/09/18 04:11:35;;;;;;;19.52;15.27;;;18.10;99.90;;;;;;7371474;19;20025;-57
2023/09/18 04:14:05;;;;;;;18.92;16.92;;;18.10;99.90;;;;;;7370835;19;20472;-57
2023/09/18 04:16:35;;;;;;;17.00;15.20;;;18.10;99.90;;;;;;7374932;19;20488;-57
2023/09/18 04:19:02;;;;;;;17.80;15.95;;;18.10;99.90;;;;;;7371082;19;20022;-57
2023/09/18 04:21:31;;;;;;;18.73;16.67;;;18.10;99.90;;;;;;7369098;19;20025;-57
2023/09/18 04:23:58;;;;;;;18.02;16.13;;;18.10;99.90;;;;;;7368983;19;20018;-57
2023/09/18 04:26:30;;;;;;;19.48;17.48;;;18.10;99.90;;;;;;7370515;19;20370;-58
2023/09/18 04:28:58;;;;;;;18.60;16.75;;;18.10;99.90;;;;;;7366627;19;20022;-57
2023/09/18 04:31:28;;;;;;;17.92;16.13;;;18.10;99.90;;;;;;7370194;19;20022;-58
2023/09/18 04:33:57;;;;;;;17.13;15.63;;;18.10;99.90;;;;;;7365104;19;20022;-57
2023/09/18 04:36:24;;;;;;;17.08;15.38;;;18.20;99.90;;;;;;7370414;19;20384;-56
2023/09/18 04:38:51;;;;;;;17.13;15.27;;;18.20;99.90;;;;;;7364462;19;20021;-58
2023/09/18 04:41:17;;;;;;;18.50;15.50;;;18.20;99.90;;;;;;7372368;19;20014;-57
2023/09/18 04:43:44;;;;;;;18.05;16.23;;;18.20;99.90;;;;;;7368911;19;20015;-57
2023/09/18 04:46:10;;;;;;;17.95;16.15;;;18.20;99.90;;;;;;7372545;19;20444;-57
2023/09/18 04:48:37;;;;;;;18.08;15.80;;;18.20;99.90;;;;;;7369399;19;20059;-58
2023/09/18 04:51:25;;;;;;;18.92;17.13;;;18.30;99.90;;;;;;7364355;19;20100;-59
2023/09/18 04:53:51;;;;;;;17.65;15.57;;;18.30;99.90;;;;;;7370734;19;20460;-58
2023/09/18 04:56:19;;;;;;;16.23;14.32;;;18.30;99.90;;;;;;7365614;19;20024;-56
2023/09/18 04:58:45;;;;;;;17.67;14.70;;;18.30;99.90;;;;;;7365437;19;20722;-58
2023/09/18 05:01:11;;;;;;;16.67;14.88;;;18.30;99.90;;;;;;7364055;19;20022;-57
2023/09/18 05:04:00;;;;;;;16.70;14.95;;;18.40;99.90;;;;;;7374977;19;20052;-64
2023/09/18 05:06:26;;;;;;;16.00;14.55;;;18.40;99.90;;;;;;7389436;19;20018;-64
2023/09/18 05:08:53;;;;;;;19.63;15.90;;;18.40;99.90;;;;;;7390738;19;20129;-64
2023/09/18 05:11:19;;;;;;;16.33;14.02;;;18.40;99.90;;;;;;7389704;19;20433;-64
2023/09/18 05:13:46;;;;;;;16.25;14.50;;;18.30;99.90;;;;;;7389520;19;20426;-64
2023/09/18 05:16:13;;;;;;;15.52;14.02;;;18.40;99.90;;;;;;7387425;19;20024;-63
2023/09/18 05:18:40;;;;;;;17.08;15.25;;;18.40;99.90;;;;;;7391374;19;20013;-64
2023/09/18 05:21:09;;;;;;;16.00;14.30;;;18.50;99.90;;;;;;7372516;19;20359;-58
2023/09/18 05:23:36;;;;;;;16.65;15.05;;;18.50;99.90;;;;;;7365347;19;20384;-57
2023/09/18 05:26:03;;;;;;;16.85;15.07;;;18.50;99.90;;;;;;7367120;19;20019;-58
2023/09/18 05:28:30;;;;;;;16.23;13.82;;;18.50;99.90;;;;;;7363768;19;20022;-57
2023/09/18 05:30:56;;;;;;;16.95;15.30;;;18.50;99.90;;;;;;7374145;19;20050;-57
2023/09/18 05:33:23;;;;;;;21.13;14.80;;;18.40;99.90;;;;;;7365557;19;20469;-56
2023/09/18 05:35:49;;;;;;;17.98;15.45;;;18.40;99.90;;;;;;7365226;19;20015;-57
2023/09/18 05:38:35;;;;;;;19.95;14.98;;;18.40;99.90;;;;;;7367694;19;20137;-57
2023/09/18 05:41:02;;;;;;;18.15;15.25;;;18.40;99.90;;;;;;7363216;19;20010;-57
2023/09/18 05:43:28;;;;;;;18.30;15.48;;;18.30;99.90;;;;;;7367949;19;20042;-57
2023/09/18 05:45:54;;;;;;;17.25;15.52;;;18.30;99.90;;;;;;7363222;19;20022;-57
2023/09/18 05:48:41;;;;;;;15.95;14.25;;;18.30;99.90;;;;;;7364475;19;20384;-57
2023/09/18 05:51:07;;;;;;;18.10;13.77;;;18.30;99.90;;;;;;7367585;19;20018;-58
2023/09/18 05:53:35;;;;;;;17.38;15.57;;;18.30;99.90;;;;;;7368227;19;20025;-57
2023/09/18 05:56:21;;;;;;;15.48;13.77;;;18.30;99.90;;;;;;7365100;19;20876;-57
2023/09/18 05:58:47;;;;;;;18.45;15.63;;;18.30;99.90;;;;;;7367138;19;20086;-58
2023/09/18 06:01:13;;;;;;;19.92;16.13;;;18.30;99.90;;;;;;7366073;19;20043;-58
2023/09/18 06:03:39;;;;;;;20.13;16.08;;;18.30;99.90;;;;;;7368261;19;20015;-58
2023/09/18 06:06:06;;;;;;;24.02;17.20;;;18.30;99.90;;;;;;7365458;19;20925;-60
2023/09/18 06:08:33;;;;;;;18.10;15.50;;;18.30;99.90;;;;;;7365643;19;20447;-60
2023/09/18 06:10:59;;;;;;;17.77;14.85;;;18.30;99.90;;;;;;7370161;19;20015;-61
2023/09/18 06:13:26;;;;;;;17.02;15.02;;;18.40;99.90;;;;;;7367118;19;20033;-60
2023/09/18 06:15:54;;;;;;;17.48;15.18;;;18.30;99.90;;;;;;7371094;19;20029;-61
2023/09/18 06:18:21;;;;;;;18.42;16.35;;;18.40;99.90;;;;;;7366148;19;20026;-60
2023/09/18 06:20:48;;;;;;;17.35;15.60;;;18.40;99.90;;;;;;7370406;19;20015;-60
2023/09/18 06:23:14;;;;;;;17.48;15.57;;;18.40;99.90;;;;;;7364227;19;20844;-60
2023/09/18 06:25:41;;;;;;;18.88;16.90;;;18.40;99.90;;;;;;7366029;19;20018;-61
2023/09/18 06:28:07;;;;;;;16.50;14.48;;;18.40;99.90;;;;;;7364974;19;20018;-60
2023/09/18 06:30:36;;;;;;;16.92;15.13;;;18.50;99.90;;;;;;7371264;19;20014;-60
2023/09/18 06:33:03;;;;;;;15.20;13.65;;;18.50;99.90;;;;;;7365689;19;20022;-60
2023/09/18 06:35:30;;;;;;;16.25;13.65;;;18.50;99.90;;;;;;7371079;19;20100;-60
2023/09/18 06:37:58;;;;;;;17.60;14.57;;;18.60;99.90;;;;;;7370333;19;20470;-61
2023/09/18 06:40:25;;;;;;;15.15;13.63;;;18.60;99.90;;;;;;7373880;19;20022;-65
2023/09/18 06:42:54;;;;;;;16.25;13.70;;;18.60;99.90;;;;;;7369771;19;20025;-60
2023/09/18 06:45:20;;;;;;;23.98;14.43;;;18.60;99.90;;;;;;7373442;19;20018;-60
2023/09/18 06:47:47;;;;;;;47.75;19.48;;;18.60;99.90;;;;;;7367353;19;20514;-60
2023/09/18 06:50:14;;;;;;;32.75;19.30;;;18.40;99.90;;;;;;7373007;19;20102;-60
2023/09/18 06:52:40;;;;;;;28.05;22.55;;;18.20;99.90;;;;;;7370953;19;20019;-60
2023/09/18 06:55:07;;;;;;;26.17;23.27;;;18.10;99.90;;;;;;7365431;19;20022;-59
2023/09/18 06:57:34;;;;;;;72.40;65.25;;;18.10;99.90;;;;;;7372940;19;20105;-62
2023/09/18 07:00:00;;;;;;;36.90;28.85;;;18.10;99.90;;;;;;7368356;19;20015;-58
2023/09/18 07:02:27;;;;;;;52.50;32.00;;;18.10;99.90;;;;;;7372600;19;20010;-58
2023/09/18 07:04:53;;;;;;;63.75;33.75;;;18.10;99.90;;;;;;7373399;19;20041;-59
2023/09/18 07:07:24;;;;;;;39.38;29.67;;;18.00;99.90;;;;;;7374160;19;20018;-58
2023/09/18 07:09:51;;;;;;;;;;;18.00;99.90;;;;;;7370960;19;20366;-58
2023/09/18 07:12:20;;;;;;;26.90;23.40;;;18.10;99.90;;;;;;7375689;19;20340;-57
2023/09/18 07:14:47;;;;;;;28.98;22.63;;;18.00;99.90;;;;;;7370107;19;20862;-57
2023/09/18 07:17:13;;;;;;;29.35;22.63;;;18.10;99.90;;;;;;7372896;19;20019;-57
2023/09/18 07:19:40;;;;;;;28.35;24.23;;;18.10;99.90;;;;;;7373229;19;20665;-55
2023/09/18 07:22:06;;;;;;;32.42;25.77;;;18.10;99.90;;;;;;7373143;19;20411;-57
2023/09/18 07:24:32;;;;;;;35.88;26.48;;;18.10;99.90;;;;;;7372343;19;20395;-58
2023/09/18 07:26:59;;;;;;;29.42;24.60;;;18.10;99.90;;;;;;7371231;19;20019;-57
2023/09/18 07:29:25;;;;;;;30.73;26.00;;;18.20;99.90;;;;;;7372048;19;20025;-58
2023/09/18 07:31:52;;;;;;;32.03;23.60;;;18.20;99.90;;;;;;7371320;19;20652;-58
2023/09/18 07:34:19;;;;;;;27.13;23.30;;;18.20;99.90;;;;;;7375240;19;20086;-58
2023/09/18 07:36:45;;;;;;;29.80;24.40;;;18.30;99.90;;;;;;7372329;19;20489;-58
2023/09/18 07:39:11;;;;;;;30.98;25.25;;;18.20;99.90;;;;;;7372665;19;20011;-58
2023/09/18 07:41:37;;;;;;;29.30;24.33;;;18.40;99.90;;;;;;7374634;19;20015;-56
2023/09/18 07:44:04;;;;;;;28.73;23.73;;;18.30;99.90;;;;;;7369689;19;20022;-57
2023/09/18 07:46:30;;;;;;;30.40;24.73;;;18.40;99.90;;;;;;7369189;19;20022;-67
2023/09/18 07:48:58;;;;;;;26.73;23.40;;;18.40;99.90;;;;;;7374614;19;20584;-68
2023/09/18 07:51:27;;;;;;;26.48;23.33;;;18.50;99.90;;;;;;7368018;19;20018;-57
2023/09/18 07:53:53;;;;;;;24.25;21.17;;;18.40;99.90;;;;;;7372279;19;20049;-66
2023/09/18 07:56:20;;;;;;;29.30;23.65;;;18.30;99.90;;;;;;7371555;19;20011;-64
2023/09/18 07:58:47;;;;;;;34.63;26.48;;;18.40;99.90;;;;;;7372615;19;20025;-68
2023/09/18 08:01:13;;;;;;;31.92;25.75;;;18.50;99.90;;;;;;7369329;19;20022;-57
2023/09/18 08:04:00;;;;;;;33.33;25.60;;;18.40;99.90;;;;;;7372115;19;20417;-68
2023/09/18 08:06:28;;;;;;;30.50;25.45;;;18.50;99.90;;;;;;7366036;19;20014;-67
2023/09/18 08:08:54;;;;;;;29.52;26.40;;;18.50;99.90;;;;;;7372001;19;20019;-68
2023/09/18 08:11:20;;;;;;;31.27;25.15;;;18.50;99.90;;;;;;7367358;19;20010;-67
2023/09/18 08:13:46;;;;;;;36.58;28.42;;;18.60;99.90;;;;;;7371422;19;20018;-67
2023/09/18 08:16:13;;;;;;;34.28;26.25;;;18.50;99.90;;;;;;7370467;19;20593;-67
2023/09/18 08:18:41;;;;;;;35.22;27.40;;;18.50;99.90;;;;;;7369501;19;20014;-67
2023/09/18 08:21:09;;;;;;;37.45;30.15;;;18.50;99.90;;;;;;7369939;19;20475;-70
2023/09/18 08:23:36;;;;;;;35.80;27.30;;;18.60;99.90;;;;;;7371900;19;20090;-67
2023/09/18 08:26:03;;;;;;;38.15;34.17;;;18.60;99.90;;;;;;7369381;19;20014;-64
2023/09/18 08:28:30;;;;;;;88.80;79.38;;;18.60;99.90;;;;;;7370674;19;20074;-66
2023/09/18 08:30:58;;;;;;;33.35;28.02;;;18.60;99.90;;;;;;7368874;19;20018;-67
2023/09/18 08:33:26;;;;;;;41.40;29.85;;;18.60;99.90;;;;;;7369223;19;20022;-67
2023/09/18 08:35:52;;;;;;;36.08;27.25;;;18.60;99.90;;;;;;7369125;19;20026;-68
2023/09/18 08:38:19;;;;;;;41.38;29.73;;;18.70;99.90;;;;;;7351496;19;20090;-67
2023/09/18 08:40:45;;;;;;;42.53;32.17;;;18.70;99.90;;;;;;7362911;19;20025;-57
2023/09/18 08:43:16;;;;;;;45.50;31.45;;;18.80;99.90;;;;;;7367842;19;20018;-58
2023/09/18 08:45:54;;;;;;;38.13;29.88;;;18.80;99.90;;;;;;7367195;19;20021;-57
2023/09/18 08:48:41;;;;;;;44.55;32.05;;;18.90;99.90;;;;;;7367332;19;20018;-57
2023/09/18 08:51:08;;;;;;;36.17;30.00;;;18.80;99.90;;;;;;7366243;19;20633;-57
2023/09/18 08:53:35;;;;;;;36.00;30.23;;;18.90;99.90;;;;;;7365318;19;20486;-56
2023/09/18 08:56:04;;;;;;;43.33;32.72;;;19.00;99.90;;;;;;7370538;19;20047;-57
2023/09/18 08:58:37;;;;;;;38.75;33.05;;;18.90;99.90;;;;;;7363184;19;20358;-57
2023/09/18 09:01:05;;;;;;;35.67;30.23;;;19.00;99.90;;;;;;7370496;19;20471;-57
2023/09/18 09:03:34;;;;;;;41.92;31.85;;;19.00;99.90;;;;;;7367666;19;20035;-57
2023/09/18 09:06:01;;;;;;;34.47;29.90;;;18.90;99.90;;;;;;7367551;19;20391;-57
2023/09/18 09:08:30;;;;;;;35.50;28.13;;;19.00;99.90;;;;;;7362539;19;20028;-68
2023/09/18 09:10:57;;;;;;;34.38;29.80;;;19.00;99.90;;;;;;7365630;19;20018;-68
2023/09/18 09:13:28;;;;;;;39.20;29.08;;;19.00;99.90;;;;;;7364340;19;20440;-64
2023/09/18 09:15:56;;;;;;;33.05;29.48;;;19.10;99.90;;;;;;7366831;19;20018;-64
2023/09/18 09:18:24;;;;;;;34.97;29.40;;;18.90;99.90;;;;;;7368518;19;20057;-68
2023/09/18 09:21:04;;;;;;;32.85;29.33;;;19.10;99.90;;;;;;7368349;19;20017;-68
2023/09/18 09:23:53;;;;;;;34.28;29.08;;;19.00;99.90;;;;;;7368552;19;20010;-67
2023/09/18 09:26:25;;;;;;;32.60;27.90;;;19.10;99.90;;;;;;7363467;19;20052;-68
2023/09/18 09:28:52;;;;;;;;;;;19.20;99.90;;;;;;7368429;19;20025;-67
2023/09/18 09:31:30;;;;;;;33.60;27.85;;;19.40;99.90;;;;;;7362538;19;19934;-67
2023/09/18 09:33:58;;;;;;;32.65;26.60;;;19.40;99.90;;;;;;7368787;19;20331;-68
2023/09/18 09:36:24;;;;;;;27.38;24.58;;;19.50;99.90;;;;;;7365822;19;20102;-67
2023/09/18 09:39:00;;;;;;;28.65;24.48;;;19.50;99.90;;;;;;7368715;19;20022;-67
2023/09/18 09:41:27;;;;;;;25.55;22.88;;;19.70;99.90;;;;;;7368374;19;20014;-67
2023/09/18 09:43:55;;;;;;;24.38;21.05;;;19.70;99.90;;;;;;7362634;19;20015;-68
2023/09/18 09:46:25;;;;;;;21.70;19.60;;;19.80;99.90;;;;;;7363972;19;20028;-65
2023/09/18 09:49:02;;;;;;;22.60;20.35;;;19.80;99.90;;;;;;7364800;19;20025;-67
2023/09/18 09:51:31;;;;;;;24.05;21.60;;;20.00;99.90;;;;;;7363792;19;20369;-69
2023/09/18 09:53:59;;;;;;;21.90;19.80;;;20.00;99.90;;;;;;7364740;19;20022;-71
2023/09/18 09:56:45;;;;;;;44.97;40.75;;;20.10;99.90;;;;;;7364414;19;20025;-71
2023/09/18 09:59:14;;;;;;;28.30;25.65;;;20.10;99.90;;;;;;7363947;19;20577;-69
2023/09/18 10:01:40;;;;;;;30.60;27.73;;;20.30;99.90;;;;;;7364077;19;20026;-71
2023/09/18 10:04:17;;;;;;;36.25;32.72;;;20.60;99.90;;;;;;7370366;19;20494;-72
2023/09/18 10:06:47;;;;;;;19.13;17.40;;;20.50;99.90;;;;;;7375443;19;20877;-61
2023/09/18 10:09:15;;;;;;;18.90;17.00;;;20.50;99.90;;;;;;7372934;19;20380;-62
2023/09/18 10:11:45;;;;;;;22.55;20.30;;;20.40;99.90;;;;;;7373066;19;20346;-61
2023/09/18 10:14:19;;;;;;;16.05;14.35;;;20.50;99.90;;;;;;7375445;19;20045;-71
2023/09/18 10:16:50;;;;;;;13.73;12.43;;;20.60;99.90;;;;;;7377976;19;20550;-72
2023/09/18 10:19:35;;;;;;;15.65;14.10;;;20.60;99.90;;;;;;7375573;19;20036;-72
2023/09/18 10:22:34;;;;;;;12.32;11.02;;;20.70;99.90;;;;;;7376034;19;20493;-60
2023/09/18 10:25:09;;;;;;;13.00;11.80;;;20.90;99.90;;;;;;7373918;19;20474;-60
2023/09/18 10:27:40;;;;;;;17.63;13.15;;;21.00;99.90;;;;;;7375125;19;20117;-62
2023/09/18 10:30:10;;;;;;;13.18;11.88;;;21.00;99.90;;;;;;7377675;19;20022;-62
2023/09/18 10:32:40;;;;;;;12.20;11.02;;;21.30;99.90;;;;;;7370460;19;20400;-62
2023/09/18 10:35:12;;;;;;;12.85;9.27;;;21.60;99.90;;;;;;7374802;19;20517;-72
2023/09/18 10:37:41;;;;;;;11.48;10.38;;;21.60;99.90;;;;;;7373390;19;20478;-62
2023/09/18 10:40:30;;;;;;;9.75;8.75;;;21.60;99.90;;;;;;7375437;19;20018;-62
2023/09/18 10:42:58;;;;;;;9.40;8.43;;;22.20;99.90;;;;;;7368687;19;20657;-61
2023/09/18 10:45:24;;;;;;;10.85;8.05;;;22.80;99.90;;;;;;7375268;19;20014;-62
2023/09/18 10:48:13;;;;;;;10.18;7.55;;;23.40;99.90;;;;;;7371728;19;20027;-60
2023/09/18 10:50:41;;;;;;;9.55;8.35;;;23.80;99.90;;;;;;7372045;19;20533;-62
2023/09/18 10:53:07;;;;;;;16.23;14.35;;;24.40;99.90;;;;;;7369947;19;20077;-62
2023/09/18 10:55:44;;;;;;;8.70;6.78;;;25.10;99.90;;;;;;7371411;19;20130;-61
2023/09/18 10:58:11;;;;;;;6.53;5.28;;;25.00;99.90;;;;;;7373992;19;20034;-64
2023/09/18 11:01:20;;;;;;;5.90;4.97;;;25.40;99.90;;;;;;7375324;19;20043;-61
2023/09/18 11:03:50;;;;;;;8.63;6.90;;;25.20;99.90;;;;;;7371012;19;20022;-61
2023/09/18 11:06:20;;;;;;;5.70;4.50;;;24.70;99.90;;;;;;7371978;19;20311;-61
2023/09/18 11:08:49;;;;;;;9.48;6.65;;;23.90;99.90;;;;;;7370301;19;20020;-62
2023/09/18 11:11:20;;;;;;;9.90;8.85;;;23.70;99.90;;;;;;7373013;19;20010;-61
2023/09/18 11:13:50;;;;;;;7.28;5.07;;;23.30;99.90;;;;;;7370289;19;20497;-58
2023/09/18 11:16:28;;;;;;;6.22;4.22;;;23.30;99.90;;;;;;7367427;19;20026;-57
2023/09/18 11:19:10;;;;;;;7.85;5.80;;;23.50;99.90;;;;;;7371070;19;20014;-57
2023/09/18 11:21:37;;;;;;;11.68;4.30;;;23.30;99.90;;;;;;7368751;19;20023;-57
2023/09/18 11:24:06;;;;;;;6.85;4.85;;;23.20;99.90;;;;;;7362269;19;20023;-57
2023/09/18 11:26:39;;;;;;;7.43;4.70;;;23.20;99.90;;;;;;7365273;19;20026;-56
2023/09/18 11:29:09;;;;;;;5.95;4.20;;;23.20;99.90;;;;;;7365881;19;20454;-61
2023/09/18 11:31:50;;;;;;;5.05;3.83;;;23.40;99.90;;;;;;7369629;19;20022;-57
2023/09/18 11:34:21;;;;;;;6.25;4.30;;;24.10;99.90;;;;;;7365371;19;20014;-63
2023/09/18 11:36:50;;;;;;;6.57;3.30;;;25.30;99.90;;;;;;7370085;19;20015;-57
2023/09/18 11:39:39;;;;;;;4.45;3.45;;;25.80;99.90;;;;;;7371661;19;20026;-62
2023/09/18 11:42:10;;;;;;;5.90;3.78;;;24.90;99.90;;;;;;7375732;19;20030;-62
2023/09/18 11:44:41;;;;;;;;;;;25.70;99.90;;;;;;7367685;19;20429;-63
2023/09/18 11:47:24;;;;;;;6.75;3.45;;;25.60;99.90;;;;;;7375006;19;19919;-61
2023/09/18 11:49:58;;;;;;;4.22;2.70;;;25.50;99.90;;;;;;7372864;19;20018;-61
2023/09/18 11:52:26;;;;;;;6.43;3.15;;;25.40;99.90;;;;;;7374809;19;20521;-63
2023/09/18 11:54:54;;;;;;;5.93;2.80;;;24.70;99.90;;;;;;7372305;19;20464;-62
2023/09/18 11:57:20;;;;;;;6.88;3.63;;;24.10;99.90;;;;;;7373684;19;21266;-62
2023/09/18 11:59:47;;;;;;;6.50;2.90;;;23.60;99.90;;;;;;7377512;19;20018;-61
2023/09/18 12:02:27;;;;;;;4.65;3.22;;;23.30;99.90;;;;;;7371576;19;20014;-61
2023/09/18 12:04:54;;;;;;;7.07;3.90;;;22.90;99.90;;;;;;7374434;19;20018;-61
2023/09/18 12:07:21;;;;;;;6.35;4.13;;;22.40;99.90;;;;;;7371385;19;20018;-62
2023/09/18 12:09:47;;;;;;;12.73;4.97;;;21.80;99.90;;;;;;7371757;19;20019;-61
2023/09/18 12:12:34;;;;;;;8.20;6.20;;;21.40;99.90;;;;;;7370402;19;20376;-60
2023/09/18 12:15:01;;;;;;;8.20;6.15;;;21.30;99.90;;;;;;7371184;19;20480;-63
2023/09/18 12:17:28;;;;;;;6.55;5.55;;;21.80;99.90;;;;;;7375416;19;20014;-56
2023/09/18 12:20:18;;;;;;;7.10;5.03;;;22.30;99.90;;;;;;7373251;19;20362;-61
2023/09/18 12:22:48;;;;;;;6.63;4.72;;;23.30;99.90;;;;;;7369914;19;20037;-62
2023/09/18 12:25:16;;;;;;;4.72;4.03;;;23.20;99.90;;;;;;7373153;19;20018;-62
2023/09/18 12:27:43;;;;;;;6.85;5.18;;;22.90;99.90;;;;;;7371219;19;20501;-62
2023/09/18 12:30:12;;;;;;;6.55;4.97;;;22.50;99.90;;;;;;7374158;19;20018;-59
2023/09/18 12:32:39;;;;;;;7.05;5.18;;;22.50;99.90;;;;;;7375313;19;20041;-62
2023/09/18 12:35:09;;;;;;;7.63;4.55;;;22.70;99.90;;;;;;7369856;19;20026;-58
2023/09/18 12:37:40;;;;;;;7.90;5.40;;;23.70;99.90;;;;;;7371933;19;20090;-62
2023/09/18 12:40:20;;;;;;;4.63;4.13;;;24.80;99.90;;;;;;7371788;19;20400;-58
2023/09/18 12:42:47;;;;;;;6.88;4.53;;;25.10;99.90;;;;;;7373867;19;20355;-56